createdAt,value
2023-04-21T00:01:17.255Z,54.49
2023-04-21T00:03:46.202Z,54.50
2023-04-21T00:06:14.505Z,54.53
2023-04-21T00:08:42.457Z,54.88
2023-04-21T00:11:11.021Z,55.12
2023-04-21T00:13:38.985Z,55.36
2023-04-21T00:16:07.648Z,55.31
2023-04-21T00:18:35.502Z,55.73
2023-04-21T00:21:03.687Z,56.22
2023-04-21T00:23:31.531Z,56.59
2023-04-21T00:26:01.195Z,56.63
2023-04-21T00:28:29.577Z,56.98
2023-04-21T00:30:58.651Z,56.74
2023-04-21T00:33:27.179Z,56.93
2023-04-21T00:35:58.400Z,56.79
2023-04-21T00:38:28.187Z,56.92
2023-04-21T00:40:56.265Z,57.09
2023-04-21T00:43:25.434Z,56.93
2023-04-21T00:45:55.025Z,57.04
2023-04-21T00:48:23.118Z,56.93
2023-04-21T00:50:51.232Z,56.96
2023-04-21T00:53:20.758Z,57.00
2023-04-21T00:55:50.375Z,57.16
2023-04-21T00:58:18.140Z,57.19
2023-04-21T01:00:46.151Z,56.96
2023-04-21T01:03:14.282Z,56.73
2023-04-21T01:05:42.837Z,56.50
2023-04-21T01:08:12.888Z,56.39
2023-04-21T01:10:40.984Z,56.25
2023-04-21T01:13:09.049Z,56.28
2023-04-21T01:15:37.301Z,56.22
2023-04-21T01:18:06.084Z,55.98
2023-04-21T01:20:34.130Z,56.01
2023-04-21T01:23:02.036Z,55.90
2023-04-21T01:25:29.786Z,55.82
2023-04-21T01:27:57.766Z,55.50
2023-04-21T01:30:25.747Z,55.12
2023-04-21T01:32:53.938Z,55.08
2023-04-21T01:35:21.867Z,54.85
2023-04-21T01:37:49.730Z,54.75
2023-04-21T01:40:19.415Z,54.60
2023-04-21T01:42:47.523Z,54.43
2023-04-21T01:45:15.521Z,54.27
2023-04-21T01:47:43.672Z,54.43
2023-04-21T01:50:11.700Z,54.91
2023-04-21T01:52:39.678Z,55.07
2023-04-21T01:55:08.147Z,55.38
2023-04-21T01:57:35.887Z,55.68
2023-04-21T02:00:05.144Z,55.95
2023-04-21T02:02:35.059Z,55.98
2023-04-21T02:05:03.467Z,56.14
2023-04-21T02:07:32.046Z,56.28
2023-04-21T02:10:01.157Z,56.24
2023-04-21T02:12:31.251Z,56.47
2023-04-21T02:15:01.415Z,56.35
2023-04-21T02:17:30.517Z,56.02
2023-04-21T02:19:58.518Z,55.90
2023-04-21T02:22:26.442Z,55.56
2023-04-21T02:24:56.200Z,55.57
2023-04-21T02:27:24.183Z,55.59
2023-04-21T02:29:52.321Z,55.52
2023-04-21T02:32:26.022Z,55.54
2023-04-21T02:34:50.073Z,55.86
2023-04-21T02:37:17.741Z,55.86
2023-04-21T02:39:45.990Z,55.98
2023-04-21T02:42:13.670Z,56.07
2023-04-21T02:44:42.558Z,56.12
2023-04-21T02:47:10.211Z,56.18
2023-04-21T02:49:44.634Z,56.24
2023-04-21T02:52:13.329Z,56.32
2023-04-21T02:54:43.405Z,56.26
2023-04-21T02:57:21.531Z,56.35
2023-04-21T02:59:49.404Z,56.33
2023-04-21T03:02:17.484Z,56.41
2023-04-21T03:04:45.288Z,56.45
2023-04-21T03:07:13.922Z,56.43
2023-04-21T03:09:42.011Z,56.36
2023-04-21T03:12:09.939Z,56.27
2023-04-21T03:14:37.848Z,56.28
2023-04-21T03:17:05.723Z,56.29
2023-04-21T03:19:33.731Z,56.33
2023-04-21T03:22:01.475Z,56.37
2023-04-21T03:24:29.679Z,56.51
2023-04-21T03:26:57.708Z,56.51
2023-04-21T03:29:25.515Z,56.54
2023-04-21T03:31:53.307Z,56.64
2023-04-21T03:34:21.750Z,56.73
2023-04-21T03:36:49.709Z,57.00
2023-04-21T03:39:20.614Z,57.19
2023-04-21T03:41:47.723Z,57.15
2023-04-21T03:44:15.524Z,57.16
2023-04-21T03:46:43.477Z,57.26
2023-04-21T03:49:11.274Z,57.42
2023-04-21T03:51:38.947Z,57.52
2023-04-21T03:54:07.963Z,57.64
2023-04-21T03:56:35.903Z,58.17
2023-04-21T03:59:03.872Z,58.13
2023-04-21T04:01:31.923Z,58.15
2023-04-21T04:04:00.053Z,58.50
2023-04-21T04:06:28.200Z,58.54
2023-04-21T04:08:56.170Z,58.43
2023-04-21T04:11:24.055Z,58.32
2023-04-21T04:13:52.184Z,58.22
2023-04-21T04:16:20.391Z,58.09
2023-04-21T04:18:50.603Z,57.61
2023-04-21T04:21:20.288Z,57.43
2023-04-21T04:23:52.487Z,57.01
2023-04-21T04:26:22.171Z,57.03
2023-04-21T04:28:50.186Z,57.10
2023-04-21T04:31:18.817Z,57.18
2023-04-21T04:33:46.689Z,57.18
2023-04-21T04:36:14.618Z,57.30
2023-04-21T04:38:42.441Z,57.24
2023-04-21T04:41:11.961Z,57.19
2023-04-21T04:43:39.552Z,57.22
2023-04-21T04:46:08.826Z,57.20
2023-04-21T04:48:36.846Z,57.19
2023-04-21T04:51:05.483Z,56.99
2023-04-21T04:53:33.581Z,56.90
2023-04-21T04:56:02.226Z,56.91
2023-04-21T04:58:30.108Z,56.73
2023-04-21T05:00:57.919Z,56.76
2023-04-21T05:03:26.028Z,56.65
2023-04-21T05:05:53.899Z,56.54
2023-04-21T05:08:21.913Z,56.58
2023-04-21T05:10:49.645Z,56.72
2023-04-21T05:13:17.818Z,56.64
2023-04-21T05:15:45.713Z,56.63
2023-04-21T05:18:13.454Z,56.73
2023-04-21T05:20:42.143Z,56.75
2023-04-21T05:23:10.007Z,56.80
2023-04-21T05:25:38.387Z,56.80
2023-04-21T05:28:06.225Z,56.80
2023-04-21T05:30:34.339Z,56.82
2023-04-21T05:33:02.880Z,56.97
2023-04-21T05:35:31.258Z,56.71
2023-04-21T05:37:59.369Z,56.55
2023-04-21T05:40:27.285Z,56.49
2023-04-21T05:42:55.216Z,56.66
2023-04-21T05:45:23.350Z,56.44
2023-04-21T05:47:51.447Z,55.84
2023-04-21T05:50:19.400Z,55.75
2023-04-21T05:52:47.247Z,55.43
2023-04-21T05:55:14.965Z,54.86
2023-04-21T05:57:42.618Z,54.73
2023-04-21T06:00:11.666Z,54.63
2023-04-21T06:02:39.817Z,54.49
2023-04-21T06:05:08.166Z,54.24
2023-04-21T06:07:36.909Z,54.35
2023-04-21T06:10:06.009Z,54.40
2023-04-21T06:12:33.782Z,53.75
2023-04-21T06:15:01.657Z,53.41
2023-04-21T06:17:29.558Z,53.72
2023-04-21T06:19:57.646Z,53.09
2023-04-21T06:22:27.285Z,52.69
2023-04-21T06:24:55.159Z,52.66
2023-04-21T06:27:22.782Z,52.23
2023-04-21T06:29:55.941Z,51.72
2023-04-21T06:32:24.011Z,51.73
2023-04-21T06:34:51.886Z,51.57
2023-04-21T06:37:19.876Z,50.44
2023-04-21T06:39:47.983Z,50.48
2023-04-21T06:42:15.835Z,50.71
2023-04-21T06:44:43.901Z,50.05
2023-04-21T06:47:11.820Z,50.20
2023-04-21T06:49:39.871Z,49.91
2023-04-21T06:52:07.635Z,48.75
2023-04-21T06:54:35.564Z,49.38
2023-04-21T06:57:03.953Z,49.30
2023-04-21T06:59:32.603Z,49.19
2023-04-21T07:02:00.745Z,48.67
2023-04-21T07:04:30.597Z,48.87
2023-04-21T07:07:00.583Z,49.41
2023-04-21T07:09:28.275Z,48.41
2023-04-21T07:11:56.282Z,47.59
2023-04-21T07:14:24.249Z,47.38
2023-04-21T07:16:52.246Z,47.43
2023-04-21T07:19:20.506Z,47.53
2023-04-21T07:21:48.636Z,46.00
2023-04-21T07:24:16.742Z,44.72
2023-04-21T07:26:44.537Z,45.27
2023-04-21T07:29:12.450Z,42.73
2023-04-21T07:31:40.654Z,42.37
2023-04-21T07:34:08.400Z,42.60
2023-04-21T07:36:37.611Z,42.52
2023-04-21T07:39:06.195Z,41.65
2023-04-21T07:41:33.797Z,40.94
2023-04-21T07:44:01.751Z,41.03
2023-04-21T07:46:31.522Z,40.35
2023-04-21T07:49:03.587Z,40.07
2023-04-21T07:51:31.622Z,39.75
2023-04-21T07:53:59.661Z,39.79
2023-04-21T07:56:27.693Z,40.10
2023-04-21T07:58:55.177Z,39.60
2023-04-21T08:01:23.415Z,38.85
2023-04-21T08:03:51.477Z,38.50
2023-04-21T08:06:19.721Z,39.12
2023-04-21T08:08:50.883Z,38.99
2023-04-21T08:11:21.433Z,38.66
2023-04-21T08:13:50.145Z,39.10
2023-04-21T08:16:21.138Z,38.07
2023-04-21T08:18:56.064Z,37.29
2023-04-21T08:21:37.632Z,36.64
2023-04-21T08:24:13.244Z,36.80
2023-04-21T08:26:42.564Z,36.23
2023-04-21T08:29:12.707Z,36.76
2023-04-21T08:31:47.331Z,33.88
2023-04-21T08:34:16.815Z,33.85
2023-04-21T08:36:50.022Z,34.87
2023-04-21T08:39:19.142Z,32.69
2023-04-21T08:41:49.719Z,31.65
2023-04-21T08:44:19.146Z,32.64
2023-04-21T08:46:50.954Z,32.38
2023-04-21T08:49:21.826Z,31.76
2023-04-21T08:51:59.774Z,31.84
2023-04-21T08:54:31.948Z,31.91
2023-04-21T08:57:14.167Z,30.90
2023-04-21T09:02:33.597Z,31.38
2023-04-21T09:05:06.827Z,31.00
2023-04-21T09:07:40.917Z,31.32
2023-04-21T09:10:11.004Z,30.18
2023-04-21T09:12:51.614Z,30.64
2023-04-21T09:15:28.115Z,30.04
2023-04-21T09:18:11.095Z,29.52
2023-04-21T09:20:59.452Z,30.07
2023-04-21T09:23:32.639Z,29.28
2023-04-21T09:26:09.974Z,28.95
2023-04-21T09:28:46.338Z,30.20
2023-04-21T09:31:38.773Z,30.01
2023-04-21T09:34:29.265Z,30.00
2023-04-21T09:37:25.107Z,28.63
2023-04-21T09:40:05.195Z,28.46
2023-04-21T09:45:41.837Z,27.95
2023-04-21T09:48:17.177Z,28.61
2023-04-21T09:53:36.950Z,28.43
2023-04-21T09:56:13.725Z,28.96
2023-04-21T09:58:53.855Z,28.46
2023-04-21T10:01:27.949Z,29.14
2023-04-21T10:03:58.280Z,29.23
2023-04-21T10:06:27.183Z,29.35
2023-04-21T10:08:58.858Z,29.52
2023-04-21T10:11:27.938Z,29.42
2023-04-21T10:13:59.133Z,29.05
2023-04-21T10:16:29.322Z,28.29
2023-04-21T10:18:57.566Z,28.07
2023-04-21T10:21:28.123Z,27.17
2023-04-21T10:23:58.698Z,27.19
2023-04-21T10:26:35.454Z,26.82
2023-04-21T10:29:09.034Z,27.72
2023-04-21T10:31:51.275Z,28.28
2023-04-21T10:34:34.695Z,29.19
2023-04-21T10:37:12.808Z,29.44
2023-04-21T10:39:54.745Z,29.23
2023-04-21T10:42:30.653Z,29.46
2023-04-21T10:45:02.244Z,29.75
2023-04-21T10:47:48.139Z,30.50
2023-04-21T10:50:23.268Z,30.36
2023-04-21T10:53:09.077Z,30.09
2023-04-21T10:55:38.396Z,30.43
2023-04-21T10:58:11.423Z,30.82
2023-04-21T11:00:39.518Z,30.21
2023-04-21T11:03:08.481Z,29.13
2023-04-21T11:05:42.579Z,29.32
2023-04-21T11:08:20.067Z,29.23
2023-04-21T11:10:55.476Z,29.50
2023-04-21T11:13:27.975Z,28.87
2023-04-21T11:16:07.857Z,28.58
2023-04-21T11:18:48.224Z,29.04
2023-04-21T11:21:23.446Z,29.06
2023-04-21T11:23:57.130Z,29.49
2023-04-21T11:26:35.076Z,29.20
2023-04-21T11:29:09.125Z,29.75
2023-04-21T11:31:43.715Z,29.85
2023-04-21T11:34:12.410Z,30.14
2023-04-21T11:36:46.731Z,29.53
2023-04-21T11:39:21.357Z,30.02
2023-04-21T11:41:51.688Z,29.50
2023-04-21T11:44:44.208Z,29.50
2023-04-21T11:47:19.550Z,29.34
2023-04-21T11:49:59.601Z,29.01
2023-04-21T11:52:36.357Z,29.37
2023-04-21T11:55:15.375Z,28.73
2023-04-21T11:57:43.633Z,28.20
2023-04-21T12:00:15.764Z,27.34
2023-04-21T12:02:50.744Z,27.29
2023-04-21T12:05:18.720Z,26.61
2023-04-21T12:07:51.862Z,26.89
2023-04-21T12:10:21.206Z,26.99
2023-04-21T12:12:52.129Z,27.39
2023-04-21T12:15:22.891Z,26.47
2023-04-21T12:17:53.172Z,25.67
2023-04-21T12:20:26.053Z,25.68
2023-04-21T12:22:54.131Z,25.40
2023-04-21T12:25:22.149Z,24.99
2023-04-21T12:27:58.865Z,25.81
2023-04-21T12:30:26.657Z,25.80
2023-04-21T12:32:55.383Z,26.17
2023-04-21T12:35:26.229Z,26.43
2023-04-21T12:37:54.698Z,26.42
2023-04-21T12:40:22.640Z,26.56
2023-04-21T12:42:50.924Z,26.83
2023-04-21T12:45:20.863Z,27.17
2023-04-21T12:47:49.359Z,27.29
2023-04-21T12:50:17.439Z,27.29
2023-04-21T12:52:45.383Z,27.50
2023-04-21T12:55:13.142Z,27.85
2023-04-21T12:57:40.925Z,27.86
2023-04-21T13:00:12.062Z,27.69
2023-04-21T13:02:40.137Z,27.63
2023-04-21T13:05:10.302Z,27.15
2023-04-21T13:07:38.502Z,27.37
2023-04-21T13:10:08.214Z,27.34
2023-04-21T13:12:35.999Z,27.43
2023-04-21T13:15:05.213Z,26.43
2023-04-21T13:17:33.071Z,26.62
2023-04-21T13:20:03.770Z,27.45
2023-04-21T13:22:31.949Z,27.54
2023-04-21T13:25:00.209Z,27.39
2023-04-21T13:27:30.176Z,27.13
2023-04-21T13:30:00.731Z,27.31
2023-04-21T13:32:28.633Z,27.28
2023-04-21T13:34:57.681Z,27.37
2023-04-21T13:37:25.847Z,27.33
2023-04-21T13:39:55.087Z,27.11
2023-04-21T13:42:25.413Z,27.28
2023-04-21T13:44:53.318Z,27.08
2023-04-21T13:47:21.230Z,26.98
2023-04-21T13:49:49.683Z,27.17
2023-04-21T13:52:17.551Z,26.49
2023-04-21T13:54:45.614Z,26.70
2023-04-21T13:57:13.431Z,26.24
2023-04-21T13:59:55.432Z,25.80
2023-04-21T14:02:25.142Z,26.53
2023-04-21T14:04:58.504Z,26.63
2023-04-21T14:07:26.826Z,26.79
2023-04-21T14:09:55.132Z,26.86
2023-04-21T14:12:23.695Z,26.31
2023-04-21T14:14:51.629Z,26.08
2023-04-21T14:17:19.712Z,26.63
2023-04-21T14:19:52.595Z,26.19
2023-04-21T14:22:24.579Z,26.93
2023-04-21T14:24:52.290Z,26.71
2023-04-21T14:27:21.724Z,26.84
2023-04-21T14:29:49.917Z,26.12
2023-04-21T14:32:20.000Z,26.21
2023-04-21T14:34:48.320Z,25.88
2023-04-21T14:37:16.796Z,25.61
2023-04-21T14:39:46.650Z,25.54
2023-04-21T14:42:18.191Z,26.20
2023-04-21T14:44:46.230Z,26.80
2023-04-21T14:47:14.741Z,26.90
2023-04-21T14:49:45.805Z,27.21
2023-04-21T14:52:13.964Z,27.06
2023-04-21T14:54:42.193Z,27.50
2023-04-21T14:59:43.392Z,27.72
2023-04-21T15:02:13.109Z,27.64
2023-04-21T15:04:42.049Z,27.76
2023-04-21T15:07:11.705Z,27.79
2023-04-21T15:09:40.754Z,27.89
2023-04-21T15:12:08.887Z,28.00
2023-04-21T15:14:39.903Z,27.87
2023-04-21T15:17:07.987Z,28.00
2023-04-21T15:19:36.096Z,28.24
2023-04-21T15:22:08.393Z,28.33
2023-04-21T15:24:51.625Z,28.57
2023-04-21T15:27:20.761Z,28.94
2023-04-21T15:30:06.986Z,29.35
2023-04-21T15:32:46.333Z,29.63
2023-04-21T15:35:15.519Z,29.75
2023-04-21T15:37:46.051Z,29.91
2023-04-21T15:43:17.554Z,30.00
2023-04-21T15:45:48.670Z,30.23
2023-04-21T15:48:18.623Z,30.50
2023-04-21T15:50:46.657Z,30.62
2023-04-21T15:53:15.209Z,30.67
2023-04-21T15:55:58.678Z,30.95
2023-04-21T16:01:27.392Z,30.98
2023-04-21T16:07:12.695Z,31.06
2023-04-21T16:09:44.235Z,31.24
2023-04-21T16:12:22.247Z,31.32
2023-04-21T16:15:23.930Z,31.65
2023-04-21T16:17:44.339Z,32.04
2023-04-21T16:20:16.795Z,32.19
2023-04-21T16:22:45.098Z,32.33
2023-04-21T16:25:15.306Z,32.41
2023-04-21T16:28:24.407Z,32.53
2023-04-21T16:59:02.673Z,34.16
2023-04-21T18:03:51.770Z,38.45
2023-04-21T18:06:25.864Z,38.67
2023-04-21T18:09:05.458Z,38.94
2023-04-21T18:18:28.639Z,40.17
2023-04-21T18:21:00.149Z,40.28
2023-04-21T18:23:30.420Z,40.49
2023-04-21T18:26:08.815Z,40.61
2023-04-21T18:28:40.779Z,40.76
2023-04-21T18:31:29.482Z,40.85
2023-04-21T18:33:57.679Z,40.79
2023-04-21T18:36:38.971Z,40.71
2023-04-21T18:39:07.125Z,40.72
2023-04-21T18:41:35.768Z,40.72
2023-04-21T18:44:07.721Z,40.81
2023-04-21T18:46:39.427Z,40.83
2023-04-21T18:52:06.488Z,40.82
2023-04-21T18:58:04.347Z,40.81
2023-04-21T19:00:32.525Z,40.83
2023-04-21T19:03:01.330Z,40.68
2023-04-21T19:05:31.953Z,40.72
2023-04-21T19:08:01.268Z,40.67
2023-04-21T19:10:34.855Z,40.68
2023-04-21T19:13:04.010Z,40.69
2023-04-21T19:15:31.959Z,40.71
2023-04-21T19:17:59.980Z,40.78
2023-04-21T19:20:29.118Z,40.85
2023-04-21T19:23:03.959Z,40.81
2023-04-21T19:25:34.577Z,40.86
2023-04-21T19:28:02.999Z,40.96
2023-04-21T19:30:32.773Z,41.17
2023-04-21T19:33:00.896Z,41.40
2023-04-21T19:35:29.609Z,41.44
2023-04-21T19:37:58.724Z,41.58
2023-04-21T19:40:26.753Z,41.66
2023-04-21T19:42:55.255Z,41.65
2023-04-21T19:45:23.812Z,41.68
2023-04-21T19:47:51.979Z,41.69
2023-04-21T19:50:19.935Z,41.65
2023-04-21T19:52:47.879Z,41.66
2023-04-21T19:55:16.024Z,41.62
2023-04-21T19:57:44.057Z,41.67
2023-04-21T20:00:13.658Z,41.70
2023-04-21T20:02:43.043Z,41.65
2023-04-21T20:05:11.469Z,41.69
2023-04-21T20:07:40.365Z,41.75
2023-04-21T20:10:09.378Z,41.93
2023-04-21T20:12:37.548Z,41.96
2023-04-21T20:15:06.790Z,42.00
2023-04-21T20:17:34.986Z,42.19
2023-04-21T20:20:04.736Z,42.35
2023-04-21T20:22:32.755Z,42.42
2023-04-21T20:25:00.860Z,42.66
2023-04-21T20:27:35.211Z,42.92
2023-04-21T20:30:03.749Z,43.13
2023-04-21T20:32:32.226Z,43.44
2023-04-21T20:35:00.045Z,43.52
2023-04-21T20:37:29.222Z,43.85
2023-04-21T20:39:59.013Z,43.94
2023-04-21T20:42:27.715Z,44.24
2023-04-21T20:44:55.680Z,44.36
2023-04-21T20:47:25.418Z,44.57
2023-04-21T20:49:54.248Z,44.64
2023-04-21T20:52:22.388Z,44.97
2023-04-21T20:54:50.747Z,45.09
2023-04-21T20:57:18.591Z,45.26
2023-04-21T20:59:48.761Z,45.38
2023-04-21T21:02:18.317Z,45.76
2023-04-21T21:05:00.205Z,45.87
2023-04-21T21:07:36.827Z,46.15
2023-04-21T21:10:06.078Z,46.23
2023-04-21T21:12:33.974Z,46.26
2023-04-21T21:15:02.204Z,46.33
2023-04-21T21:17:30.225Z,46.51
2023-04-21T21:20:03.049Z,46.68
2023-04-21T21:22:32.052Z,47.32
2023-04-21T21:25:00.505Z,47.61
2023-04-21T21:27:28.688Z,47.87
2023-04-21T21:29:58.093Z,48.51
2023-04-21T21:32:25.969Z,48.91
2023-04-21T21:34:54.985Z,49.60
2023-04-21T21:37:24.098Z,50.18
2023-04-21T21:39:52.189Z,50.65
2023-04-21T21:42:20.210Z,50.75
2023-04-21T21:44:48.114Z,50.83
2023-04-21T21:47:17.720Z,51.29
2023-04-21T21:49:51.806Z,51.17
2023-04-21T21:52:20.467Z,51.87
2023-04-21T21:54:49.441Z,51.76
2023-04-21T21:57:17.518Z,51.90
2023-04-21T21:59:45.249Z,52.44
2023-04-21T22:02:13.177Z,52.97
2023-04-21T22:04:41.071Z,52.77
2023-04-21T22:07:09.164Z,52.57
2023-04-21T22:09:37.903Z,52.82
2023-04-21T22:12:06.772Z,52.73
2023-04-21T22:14:35.100Z,52.97
2023-04-21T22:17:03.051Z,53.07
2023-04-21T22:19:31.159Z,53.08
2023-04-21T22:21:59.001Z,53.27
2023-04-21T22:24:26.839Z,53.22
2023-04-21T22:26:54.395Z,53.65
2023-04-21T22:29:22.144Z,53.35
2023-04-21T22:31:49.935Z,53.42
2023-04-21T22:34:19.131Z,53.40
2023-04-21T22:36:47.012Z,53.57
2023-04-21T22:39:14.947Z,53.54
2023-04-21T22:41:42.691Z,53.71
2023-04-21T22:44:11.793Z,54.05
2023-04-21T22:46:40.521Z,54.20
2023-04-21T22:49:08.732Z,54.37
2023-04-21T22:51:36.466Z,54.35
2023-04-21T22:54:04.417Z,54.83
2023-04-21T22:56:32.175Z,56.37
2023-04-21T22:58:59.938Z,56.10
2023-04-21T23:01:28.736Z,56.10
2023-04-21T23:03:56.803Z,56.07
2023-04-21T23:06:24.790Z,56.47
2023-04-21T23:08:52.613Z,56.99
2023-04-21T23:11:20.552Z,56.90
2023-04-21T23:13:48.335Z,57.17
2023-04-21T23:16:15.965Z,57.55
2023-04-21T23:18:43.927Z,57.57
2023-04-21T23:21:12.901Z,57.92
2023-04-21T23:23:40.557Z,58.03
2023-04-21T23:26:08.527Z,58.31
2023-04-21T23:28:36.478Z,58.10
2023-04-21T23:31:04.279Z,58.15
2023-04-21T23:33:32.235Z,58.19
2023-04-21T23:35:59.936Z,58.24
2023-04-21T23:38:27.809Z,58.69
2023-04-21T23:40:55.608Z,58.78
2023-04-21T23:43:23.347Z,59.05
2023-04-21T23:45:52.035Z,59.20
2023-04-21T23:48:19.778Z,60.17
2023-04-21T23:50:47.733Z,59.97
2023-04-21T23:53:15.693Z,61.41
2023-04-21T23:55:43.443Z,61.11
2023-04-21T23:58:11.524Z,60.89
